sensor_id;sensor_type;location;lat;lon;timestamp;temperature;humidity
69084;SHT31;56185;48.526;9.044;2024-02-04T00:00:12;8.05;76.53
69084;SHT31;56185;48.526;9.044;2024-02-04T00:02:38;8.01;76.58
69084;SHT31;56185;48.526;9.044;2024-02-04T00:05:03;7.93;76.84
69084;SHT31;56185;48.526;9.044;2024-02-04T00:07:28;7.91;77.16
69084;SHT31;56185;48.526;9.044;2024-02-04T00:09:53;7.93;76.98
69084;SHT31;56185;48.526;9.044;2024-02-04T00:12:19;7.93;76.90
69084;SHT31;56185;48.526;9.044;2024-02-04T00:14:44;8.01;76.89
69084;SHT31;56185;48.526;9.044;2024-02-04T00:17:09;7.93;76.76
69084;SHT31;56185;48.526;9.044;2024-02-04T00:19:34;7.89;77.01
69084;SHT31;56185;48.526;9.044;2024-02-04T00:22:00;7.92;76.95
69084;SHT31;56185;48.526;9.044;2024-02-04T00:24:25;7.93;76.74
69084;SHT31;56185;48.526;9.044;2024-02-04T00:26:50;7.88;76.72
69084;SHT31;56185;48.526;9.044;2024-02-04T00:29:16;7.91;76.88
69084;SHT31;56185;48.526;9.044;2024-02-04T00:31:41;7.79;76.99
69084;SHT31;56185;48.526;9.044;2024-02-04T00:34:06;7.86;76.90
69084;SHT31;56185;48.526;9.044;2024-02-04T00:36:34;7.88;76.93
69084;SHT31;56185;48.526;9.044;2024-02-04T00:39:00;7.95;76.79
69084;SHT31;56185;48.526;9.044;2024-02-04T00:41:25;7.92;76.75
69084;SHT31;56185;48.526;9.044;2024-02-04T00:43:50;7.85;77.00
69084;SHT31;56185;48.526;9.044;2024-02-04T00:46:15;7.85;76.90
69084;SHT31;56185;48.526;9.044;2024-02-04T00:48:40;7.82;76.82
69084;SHT31;56185;48.526;9.044;2024-02-04T00:51:06;7.84;77.09
69084;SHT31;56185;48.526;9.044;2024-02-04T00:53:32;7.64;77.21
69084;SHT31;56185;48.526;9.044;2024-02-04T00:55:57;7.71;77.11
69084;SHT31;56185;48.526;9.044;2024-02-04T00:58:22;7.71;77.38
69084;SHT31;56185;48.526;9.044;2024-02-04T01:00:47;7.72;77.20
69084;SHT31;56185;48.526;9.044;2024-02-04T01:03:13;7.67;77.20
69084;SHT31;56185;48.526;9.044;2024-02-04T01:05:38;7.70;77.46
69084;SHT31;56185;48.526;9.044;2024-02-04T01:08:03;7.71;77.31
69084;SHT31;56185;48.526;9.044;2024-02-04T01:10:29;7.78;76.97
69084;SHT31;56185;48.526;9.044;2024-02-04T01:12:54;7.85;76.68
69084;SHT31;56185;48.526;9.044;2024-02-04T01:15:19;7.79;77.04
69084;SHT31;56185;48.526;9.044;2024-02-04T01:17:45;7.72;76.93
69084;SHT31;56185;48.526;9.044;2024-02-04T01:20:10;7.82;77.10
69084;SHT31;56185;48.526;9.044;2024-02-04T01:22:35;7.89;76.84
69084;SHT31;56185;48.526;9.044;2024-02-04T01:25:00;7.89;76.70
69084;SHT31;56185;48.526;9.044;2024-02-04T01:27:25;7.98;76.73
69084;SHT31;56185;48.526;9.044;2024-02-04T01:29:51;7.88;76.72
69084;SHT31;56185;48.526;9.044;2024-02-04T01:32:16;7.78;77.12
69084;SHT31;56185;48.526;9.044;2024-02-04T01:34:41;7.79;77.28
69084;SHT31;56185;48.526;9.044;2024-02-04T01:37:06;7.82;76.90
69084;SHT31;56185;48.526;9.044;2024-02-04T01:39:32;7.74;76.79
69084;SHT31;56185;48.526;9.044;2024-02-04T01:41:57;7.77;77.01
69084;SHT31;56185;48.526;9.044;2024-02-04T01:44:22;7.74;76.89
69084;SHT31;56185;48.526;9.044;2024-02-04T01:46:48;7.63;77.21
69084;SHT31;56185;48.526;9.044;2024-02-04T01:49:13;7.54;77.44
69084;SHT31;56185;48.526;9.044;2024-02-04T01:51:38;7.50;77.43
69084;SHT31;56185;48.526;9.044;2024-02-04T01:54:05;7.54;77.49
69084;SHT31;56185;48.526;9.044;2024-02-04T01:56:31;7.38;77.78
69084;SHT31;56185;48.526;9.044;2024-02-04T01:58:56;7.30;78.22
69084;SHT31;56185;48.526;9.044;2024-02-04T02:01:23;7.34;78.13
69084;SHT31;56185;48.526;9.044;2024-02-04T02:03:48;7.37;78.41
69084;SHT31;56185;48.526;9.044;2024-02-04T02:06:14;7.41;78.10
69084;SHT31;56185;48.526;9.044;2024-02-04T02:08:41;7.48;77.79
69084;SHT31;56185;48.526;9.044;2024-02-04T02:11:11;7.53;77.71
69084;SHT31;56185;48.526;9.044;2024-02-04T02:13:39;7.44;78.15
69084;SHT31;56185;48.526;9.044;2024-02-04T02:16:13;7.57;77.82
69084;SHT31;56185;48.526;9.044;2024-02-04T02:18:52;7.55;77.94
69084;SHT31;56185;48.526;9.044;2024-02-04T02:24:03;7.51;78.13
69084;SHT31;56185;48.526;9.044;2024-02-04T02:26:31;7.53;77.97
69084;SHT31;56185;48.526;9.044;2024-02-04T02:28:56;7.48;78.15
69084;SHT31;56185;48.526;9.044;2024-02-04T02:31:22;7.47;78.38
69084;SHT31;56185;48.526;9.044;2024-02-04T02:33:47;7.17;79.05
69084;SHT31;56185;48.526;9.044;2024-02-04T02:36:14;7.34;78.93
69084;SHT31;56185;48.526;9.044;2024-02-04T02:38:59;7.40;78.78
69084;SHT31;56185;48.526;9.044;2024-02-04T02:41:29;7.40;78.60
69084;SHT31;56185;48.526;9.044;2024-02-04T02:43:56;7.23;79.24
69084;SHT31;56185;48.526;9.044;2024-02-04T02:46:22;7.33;79.02
69084;SHT31;56185;48.526;9.044;2024-02-04T02:48:48;7.17;79.13
69084;SHT31;56185;48.526;9.044;2024-02-04T02:51:13;7.26;79.17
69084;SHT31;56185;48.526;9.044;2024-02-04T02:53:38;7.34;78.84
69084;SHT31;56185;48.526;9.044;2024-02-04T02:56:04;7.23;78.93
69084;SHT31;56185;48.526;9.044;2024-02-04T02:58:29;7.24;78.93
69084;SHT31;56185;48.526;9.044;2024-02-04T03:00:54;7.35;78.88
69084;SHT31;56185;48.526;9.044;2024-02-04T03:03:20;7.31;79.01
69084;SHT31;56185;48.526;9.044;2024-02-04T03:05:45;7.40;78.93
69084;SHT31;56185;48.526;9.044;2024-02-04T03:08:10;7.28;79.23
69084;SHT31;56185;48.526;9.044;2024-02-04T03:10:35;7.27;79.11
69084;SHT31;56185;48.526;9.044;2024-02-04T03:13:00;7.31;79.11
69084;SHT31;56185;48.526;9.044;2024-02-04T03:15:26;7.26;79.44
69084;SHT31;56185;48.526;9.044;2024-02-04T03:17:51;7.30;79.39
69084;SHT31;56185;48.526;9.044;2024-02-04T03:20:16;7.30;79.10
69084;SHT31;56185;48.526;9.044;2024-02-04T03:22:41;7.41;78.79
69084;SHT31;56185;48.526;9.044;2024-02-04T03:25:07;7.31;79.17
69084;SHT31;56185;48.526;9.044;2024-02-04T03:27:32;7.40;79.22
69084;SHT31;56185;48.526;9.044;2024-02-04T03:29:57;7.37;79.07
69084;SHT31;56185;48.526;9.044;2024-02-04T03:32:22;7.31;78.93
69084;SHT31;56185;48.526;9.044;2024-02-04T03:34:48;7.35;79.15
69084;SHT31;56185;48.526;9.044;2024-02-04T03:37:13;7.27;79.31
69084;SHT31;56185;48.526;9.044;2024-02-04T03:39:38;7.28;79.24
69084;SHT31;56185;48.526;9.044;2024-02-04T03:42:04;7.33;79.21
69084;SHT31;56185;48.526;9.044;2024-02-04T03:44:29;7.28;79.19
69084;SHT31;56185;48.526;9.044;2024-02-04T03:46:54;7.30;79.32
69084;SHT31;56185;48.526;9.044;2024-02-04T03:49:19;7.34;79.17
69084;SHT31;56185;48.526;9.044;2024-02-04T03:51:45;7.31;79.13
69084;SHT31;56185;48.526;9.044;2024-02-04T03:54:10;7.22;79.60
69084;SHT31;56185;48.526;9.044;2024-02-04T03:56:35;7.10;79.95
69084;SHT31;56185;48.526;9.044;2024-02-04T03:59:00;7.23;79.36
69084;SHT31;56185;48.526;9.044;2024-02-04T04:01:26;7.30;79.50
69084;SHT31;56185;48.526;9.044;2024-02-04T04:03:51;7.33;79.06
69084;SHT31;56185;48.526;9.044;2024-02-04T04:06:16;7.19;79.46
69084;SHT31;56185;48.526;9.044;2024-02-04T04:08:41;7.27;79.47
69084;SHT31;56185;48.526;9.044;2024-02-04T04:11:08;7.23;79.43
69084;SHT31;56185;48.526;9.044;2024-02-04T04:13:33;7.22;79.58
69084;SHT31;56185;48.526;9.044;2024-02-04T04:15:59;7.24;79.42
69084;SHT31;56185;48.526;9.044;2024-02-04T04:18:24;7.22;79.60
69084;SHT31;56185;48.526;9.044;2024-02-04T04:20:49;7.20;79.34
69084;SHT31;56185;48.526;9.044;2024-02-04T04:23:14;7.19;79.55
69084;SHT31;56185;48.526;9.044;2024-02-04T04:25:40;7.16;79.60
69084;SHT31;56185;48.526;9.044;2024-02-04T04:28:05;7.20;79.69
69084;SHT31;56185;48.526;9.044;2024-02-04T04:30:30;7.20;79.32
69084;SHT31;56185;48.526;9.044;2024-02-04T04:32:56;7.23;79.28
69084;SHT31;56185;48.526;9.044;2024-02-04T04:35:21;7.24;79.19
69084;SHT31;56185;48.526;9.044;2024-02-04T04:37:47;7.31;78.84
69084;SHT31;56185;48.526;9.044;2024-02-04T04:40:12;7.23;78.98
69084;SHT31;56185;48.526;9.044;2024-02-04T04:42:37;7.24;78.97
69084;SHT31;56185;48.526;9.044;2024-02-04T04:45:03;7.23;78.68
69084;SHT31;56185;48.526;9.044;2024-02-04T04:47:28;7.17;78.79
69084;SHT31;56185;48.526;9.044;2024-02-04T04:49:53;7.13;79.00
69084;SHT31;56185;48.526;9.044;2024-02-04T04:52:18;7.16;78.87
69084;SHT31;56185;48.526;9.044;2024-02-04T04:54:44;7.14;78.84
69084;SHT31;56185;48.526;9.044;2024-02-04T04:57:09;7.19;78.82
69084;SHT31;56185;48.526;9.044;2024-02-04T04:59:34;7.06;78.94
69084;SHT31;56185;48.526;9.044;2024-02-04T05:01:59;7.09;78.90
69084;SHT31;56185;48.526;9.044;2024-02-04T05:04:25;7.14;78.88
69084;SHT31;56185;48.526;9.044;2024-02-04T05:06:50;7.04;78.72
69084;SHT31;56185;48.526;9.044;2024-02-04T05:09:15;7.09;78.85
69084;SHT31;56185;48.526;9.044;2024-02-04T05:11:41;7.13;78.63
69084;SHT31;56185;48.526;9.044;2024-02-04T05:14:06;7.14;78.60
69084;SHT31;56185;48.526;9.044;2024-02-04T05:16:31;7.19;78.57
69084;SHT31;56185;48.526;9.044;2024-02-04T05:18:56;7.17;78.21
69084;SHT31;56185;48.526;9.044;2024-02-04T05:21:22;7.16;78.30
69084;SHT31;56185;48.526;9.044;2024-02-04T05:23:47;7.13;78.41
69084;SHT31;56185;48.526;9.044;2024-02-04T05:26:12;7.17;78.32
69084;SHT31;56185;48.526;9.044;2024-02-04T05:28:37;7.16;78.32
69084;SHT31;56185;48.526;9.044;2024-02-04T05:31:03;7.09;78.58
69084;SHT31;56185;48.526;9.044;2024-02-04T05:33:28;7.03;78.92
69084;SHT31;56185;48.526;9.044;2024-02-04T05:35:53;7.04;78.97
69084;SHT31;56185;48.526;9.044;2024-02-04T05:38:18;7.16;78.81
69084;SHT31;56185;48.526;9.044;2024-02-04T05:40:44;7.10;79.01
69084;SHT31;56185;48.526;9.044;2024-02-04T05:43:09;7.20;78.86
69084;SHT31;56185;48.526;9.044;2024-02-04T05:45:34;7.23;78.53
69084;SHT31;56185;48.526;9.044;2024-02-04T05:48:00;7.20;78.65
69084;SHT31;56185;48.526;9.044;2024-02-04T05:50:25;7.17;79.05
69084;SHT31;56185;48.526;9.044;2024-02-04T05:52:50;7.16;78.90
69084;SHT31;56185;48.526;9.044;2024-02-04T05:55:15;7.28;78.51
69084;SHT31;56185;48.526;9.044;2024-02-04T05:57:41;7.26;78.61
69084;SHT31;56185;48.526;9.044;2024-02-04T06:00:07;7.30;78.57
69084;SHT31;56185;48.526;9.044;2024-02-04T06:02:33;7.31;78.42
69084;SHT31;56185;48.526;9.044;2024-02-04T06:04:58;7.26;78.73
69084;SHT31;56185;48.526;9.044;2024-02-04T06:07:23;7.13;79.21
69084;SHT31;56185;48.526;9.044;2024-02-04T06:09:49;7.20;78.94
69084;SHT31;56185;48.526;9.044;2024-02-04T06:12:14;7.12;79.25
69084;SHT31;56185;48.526;9.044;2024-02-04T06:14:39;7.09;79.47
69084;SHT31;56185;48.526;9.044;2024-02-04T06:17:04;7.03;79.85
69084;SHT31;56185;48.526;9.044;2024-02-04T06:19:30;7.02;79.99
69084;SHT31;56185;48.526;9.044;2024-02-04T06:21:55;7.00;79.92
69084;SHT31;56185;48.526;9.044;2024-02-04T06:24:20;6.88;80.37
69084;SHT31;56185;48.526;9.044;2024-02-04T06:26:45;6.91;80.18
69084;SHT31;56185;48.526;9.044;2024-02-04T06:29:10;6.92;80.29
69084;SHT31;56185;48.526;9.044;2024-02-04T06:31:36;6.93;80.07
69084;SHT31;56185;48.526;9.044;2024-02-04T06:34:01;6.89;80.23
69084;SHT31;56185;48.526;9.044;2024-02-04T06:36:26;6.92;80.20
69084;SHT31;56185;48.526;9.044;2024-02-04T06:38:51;6.92;80.39
69084;SHT31;56185;48.526;9.044;2024-02-04T06:41:17;6.99;79.95
69084;SHT31;56185;48.526;9.044;2024-02-04T06:43:42;6.97;80.08
69084;SHT31;56185;48.526;9.044;2024-02-04T06:46:07;6.97;80.10
69084;SHT31;56185;48.526;9.044;2024-02-04T06:48:32;6.95;79.98
69084;SHT31;56185;48.526;9.044;2024-02-04T06:50:58;6.99;80.01
69084;SHT31;56185;48.526;9.044;2024-02-04T06:53:23;6.99;80.18
69084;SHT31;56185;48.526;9.044;2024-02-04T06:55:48;7.03;79.86
69084;SHT31;56185;48.526;9.044;2024-02-04T06:58:13;7.03;79.94
69084;SHT31;56185;48.526;9.044;2024-02-04T07:00:39;7.00;80.07
69084;SHT31;56185;48.526;9.044;2024-02-04T07:03:04;7.04;79.86
69084;SHT31;56185;48.526;9.044;2024-02-04T07:05:29;7.09;79.73
69084;SHT31;56185;48.526;9.044;2024-02-04T07:07:55;7.06;79.87
69084;SHT31;56185;48.526;9.044;2024-02-04T07:10:20;6.99;80.22
69084;SHT31;56185;48.526;9.044;2024-02-04T07:12:45;7.04;80.13
69084;SHT31;56185;48.526;9.044;2024-02-04T07:15:10;7.13;79.76
69084;SHT31;56185;48.526;9.044;2024-02-04T07:17:36;7.14;79.57
69084;SHT31;56185;48.526;9.044;2024-02-04T07:20:02;7.20;79.30
69084;SHT31;56185;48.526;9.044;2024-02-04T07:22:27;7.07;79.69
69084;SHT31;56185;48.526;9.044;2024-02-04T07:24:52;7.17;79.64
69084;SHT31;56185;48.526;9.044;2024-02-04T07:27:17;7.02;79.92
69084;SHT31;56185;48.526;9.044;2024-02-04T07:29:43;7.16;79.75
69084;SHT31;56185;48.526;9.044;2024-02-04T07:32:08;7.17;79.37
69084;SHT31;56185;48.526;9.044;2024-02-04T07:34:33;6.99;80.02
69084;SHT31;56185;48.526;9.044;2024-02-04T07:36:59;7.04;80.05
69084;SHT31;56185;48.526;9.044;2024-02-04T07:39:24;7.07;79.69
69084;SHT31;56185;48.526;9.044;2024-02-04T07:41:49;7.09;79.71
69084;SHT31;56185;48.526;9.044;2024-02-04T07:44:14;7.22;79.58
69084;SHT31;56185;48.526;9.044;2024-02-04T07:46:39;7.22;79.54
69084;SHT31;56185;48.526;9.044;2024-02-04T07:49:05;7.23;79.39
69084;SHT31;56185;48.526;9.044;2024-02-04T07:51:30;7.33;79.46
69084;SHT31;56185;48.526;9.044;2024-02-04T07:53:59;7.30;79.23
69084;SHT31;56185;48.526;9.044;2024-02-04T07:56:24;7.26;79.26
69084;SHT31;56185;48.526;9.044;2024-02-04T07:58:49;7.40;79.19
69084;SHT31;56185;48.526;9.044;2024-02-04T08:01:14;7.44;79.12
69084;SHT31;56185;48.526;9.044;2024-02-04T08:03:40;7.43;79.16
69084;SHT31;56185;48.526;9.044;2024-02-04T08:06:05;7.40;79.01
69084;SHT31;56185;48.526;9.044;2024-02-04T08:08:30;7.48;78.90
69084;SHT31;56185;48.526;9.044;2024-02-04T08:10:56;7.44;78.82
69084;SHT31;56185;48.526;9.044;2024-02-04T08:13:21;7.51;78.81
69084;SHT31;56185;48.526;9.044;2024-02-04T08:15:46;7.60;78.53
69084;SHT31;56185;48.526;9.044;2024-02-04T08:18:11;7.54;78.45
69084;SHT31;56185;48.526;9.044;2024-02-04T08:20:37;7.60;78.49
69084;SHT31;56185;48.526;9.044;2024-02-04T08:23:02;7.65;78.16
69084;SHT31;56185;48.526;9.044;2024-02-04T08:25:27;7.63;78.74
69084;SHT31;56185;48.526;9.044;2024-02-04T08:27:52;7.65;78.28
69084;SHT31;56185;48.526;9.044;2024-02-04T08:30:18;7.74;78.00
69084;SHT31;56185;48.526;9.044;2024-02-04T08:32:44;7.77;78.04
69084;SHT31;56185;48.526;9.044;2024-02-04T08:35:09;7.68;78.14
69084;SHT31;56185;48.526;9.044;2024-02-04T08:37:34;7.63;78.13
69084;SHT31;56185;48.526;9.044;2024-02-04T08:40:00;7.72;77.91
69084;SHT31;56185;48.526;9.044;2024-02-04T08:42:25;7.70;77.98
69084;SHT31;56185;48.526;9.044;2024-02-04T08:44:50;7.77;77.83
69084;SHT31;56185;48.526;9.044;2024-02-04T08:47:15;7.79;77.60
69084;SHT31;56185;48.526;9.044;2024-02-04T08:49:41;7.92;77.71
69084;SHT31;56185;48.526;9.044;2024-02-04T08:52:06;8.06;77.02
69084;SHT31;56185;48.526;9.044;2024-02-04T08:54:31;8.02;77.21
69084;SHT31;56185;48.526;9.044;2024-02-04T08:56:56;8.10;76.79
69084;SHT31;56185;48.526;9.044;2024-02-04T08:59:22;8.12;76.91
69084;SHT31;56185;48.526;9.044;2024-02-04T09:01:47;8.17;76.96
69084;SHT31;56185;48.526;9.044;2024-02-04T09:04:12;8.30;76.38
69084;SHT31;56185;48.526;9.044;2024-02-04T09:06:37;8.37;76.32
69084;SHT31;56185;48.526;9.044;2024-02-04T09:09:03;8.32;76.48
69084;SHT31;56185;48.526;9.044;2024-02-04T09:11:28;8.40;76.17
69084;SHT31;56185;48.526;9.044;2024-02-04T09:13:53;8.47;76.12
69084;SHT31;56185;48.526;9.044;2024-02-04T09:16:19;8.43;75.97
69084;SHT31;56185;48.526;9.044;2024-02-04T09:18:44;8.54;75.72
69084;SHT31;56185;48.526;9.044;2024-02-04T09:21:09;8.42;75.90
69084;SHT31;56185;48.526;9.044;2024-02-04T09:23:34;8.42;76.02
69084;SHT31;56185;48.526;9.044;2024-02-04T09:26:00;8.53;75.66
69084;SHT31;56185;48.526;9.044;2024-02-04T09:28:25;8.50;75.95
69084;SHT31;56185;48.526;9.044;2024-02-04T09:30:50;8.57;75.53
69084;SHT31;56185;48.526;9.044;2024-02-04T09:33:16;8.57;75.50
69084;SHT31;56185;48.526;9.044;2024-02-04T09:35:41;8.60;75.50
69084;SHT31;56185;48.526;9.044;2024-02-04T09:38:06;8.70;75.18
69084;SHT31;56185;48.526;9.044;2024-02-04T09:40:31;8.75;74.89
69084;SHT31;56185;48.526;9.044;2024-02-04T09:42:58;8.82;74.56
69084;SHT31;56185;48.526;9.044;2024-02-04T09:45:23;8.87;74.57
69084;SHT31;56185;48.526;9.044;2024-02-04T09:47:50;8.97;74.19
69084;SHT31;56185;48.526;9.044;2024-02-04T09:50:17;9.04;73.84
69084;SHT31;56185;48.526;9.044;2024-02-04T09:52:48;9.07;73.73
69084;SHT31;56185;48.526;9.044;2024-02-04T09:55:15;8.97;74.14
69084;SHT31;56185;48.526;9.044;2024-02-04T09:57:40;9.08;73.59
69084;SHT31;56185;48.526;9.044;2024-02-04T10:00:06;9.14;73.52
69084;SHT31;56185;48.526;9.044;2024-02-04T10:02:32;9.11;73.97
69084;SHT31;56185;48.526;9.044;2024-02-04T10:04:57;9.15;73.80
69084;SHT31;56185;48.526;9.044;2024-02-04T10:07:23;9.14;73.75
69084;SHT31;56185;48.526;9.044;2024-02-04T10:09:48;9.11;73.63
69084;SHT31;56185;48.526;9.044;2024-02-04T10:12:13;9.15;73.47
69084;SHT31;56185;48.526;9.044;2024-02-04T10:14:38;9.08;73.95
69084;SHT31;56185;48.526;9.044;2024-02-04T10:17:04;9.12;73.94
69084;SHT31;56185;48.526;9.044;2024-02-04T10:19:30;9.07;74.20
69084;SHT31;56185;48.526;9.044;2024-02-04T10:22:01;9.07;73.93
69084;SHT31;56185;48.526;9.044;2024-02-04T10:24:31;9.19;74.22
69084;SHT31;56185;48.526;9.044;2024-02-04T10:26:57;9.50;73.52
69084;SHT31;56185;48.526;9.044;2024-02-04T10:29:24;9.67;72.74
69084;SHT31;56185;48.526;9.044;2024-02-04T10:31:53;9.95;72.55
69084;SHT31;56185;48.526;9.044;2024-02-04T10:34:18;10.22;71.27
69084;SHT31;56185;48.526;9.044;2024-02-04T10:36:44;10.17;70.37
69084;SHT31;56185;48.526;9.044;2024-02-04T10:39:09;9.95;71.00
69084;SHT31;56185;48.526;9.044;2024-02-04T10:41:36;9.91;71.29
69084;SHT31;56185;48.526;9.044;2024-02-04T10:44:03;9.95;71.47
69084;SHT31;56185;48.526;9.044;2024-02-04T10:46:30;10.17;71.29
69084;SHT31;56185;48.526;9.044;2024-02-04T10:49:00;10.21;70.79
69084;SHT31;56185;48.526;9.044;2024-02-04T10:51:30;10.30;70.31
69084;SHT31;56185;48.526;9.044;2024-02-04T10:53:56;10.45;70.04
69084;SHT31;56185;48.526;9.044;2024-02-04T10:58:52;10.25;70.28
69084;SHT31;56185;48.526;9.044;2024-02-04T11:01:18;10.30;70.27
69084;SHT31;56185;48.526;9.044;2024-02-04T11:03:45;10.35;70.23
69084;SHT31;56185;48.526;9.044;2024-02-04T11:06:11;10.52;69.67
69084;SHT31;56185;48.526;9.044;2024-02-04T11:08:38;10.62;68.83
69084;SHT31;56185;48.526;9.044;2024-02-04T11:11:03;10.68;69.43
69084;SHT31;56185;48.526;9.044;2024-02-04T11:13:29;10.77;68.77
69084;SHT31;56185;48.526;9.044;2024-02-04T11:15:57;10.88;68.67
69084;SHT31;56185;48.526;9.044;2024-02-04T11:26:44;11.32;68.22
69084;SHT31;56185;48.526;9.044;2024-02-04T11:29:11;11.38;67.57
69084;SHT31;56185;48.526;9.044;2024-02-04T11:31:38;11.38;67.20
69084;SHT31;56185;48.526;9.044;2024-02-04T11:34:04;11.30;67.16
69084;SHT31;56185;48.526;9.044;2024-02-04T11:36:29;11.47;67.63
69084;SHT31;56185;48.526;9.044;2024-02-04T11:38:54;11.59;66.70
69084;SHT31;56185;48.526;9.044;2024-02-04T11:41:24;11.55;67.26
69084;SHT31;56185;48.526;9.044;2024-02-04T11:43:52;11.48;67.22
69084;SHT31;56185;48.526;9.044;2024-02-04T11:46:18;11.38;67.16
69084;SHT31;56185;48.526;9.044;2024-02-04T11:48:51;11.38;67.39
69084;SHT31;56185;48.526;9.044;2024-02-04T11:51:16;11.44;67.22
69084;SHT31;56185;48.526;9.044;2024-02-04T11:53:42;11.35;67.12
69084;SHT31;56185;48.526;9.044;2024-02-04T11:56:07;11.19;67.44
69084;SHT31;56185;48.526;9.044;2024-02-04T11:58:32;11.13;67.35
69084;SHT31;56185;48.526;9.044;2024-02-04T12:00:58;11.19;67.95
69084;SHT31;56185;48.526;9.044;2024-02-04T12:03:33;11.16;67.58
69084;SHT31;56185;48.526;9.044;2024-02-04T12:05:58;11.27;67.90
69084;SHT31;56185;48.526;9.044;2024-02-04T12:08:25;11.27;67.59
69084;SHT31;56185;48.526;9.044;2024-02-04T12:10:51;11.40;67.40
69084;SHT31;56185;48.526;9.044;2024-02-04T12:13:18;11.54;67.28
69084;SHT31;56185;48.526;9.044;2024-02-04T12:15:44;11.68;66.44
69084;SHT31;56185;48.526;9.044;2024-02-04T12:18:11;11.68;66.76
69084;SHT31;56185;48.526;9.044;2024-02-04T12:20:37;11.79;67.47
69084;SHT31;56185;48.526;9.044;2024-02-04T12:23:06;11.78;66.90
69084;SHT31;56185;48.526;9.044;2024-02-04T12:25:33;11.79;66.61
69084;SHT31;56185;48.526;9.044;2024-02-04T12:27:59;11.81;66.79
69084;SHT31;56185;48.526;9.044;2024-02-04T12:30:26;11.65;66.50
69084;SHT31;56185;48.526;9.044;2024-02-04T12:33:05;11.65;67.19
69084;SHT31;56185;48.526;9.044;2024-02-04T12:35:31;11.59;66.72
69084;SHT31;56185;48.526;9.044;2024-02-04T12:37:58;11.51;67.82
69084;SHT31;56185;48.526;9.044;2024-02-04T12:40:25;11.55;67.43
69084;SHT31;56185;48.526;9.044;2024-02-04T12:43:00;11.64;68.42
69084;SHT31;56185;48.526;9.044;2024-02-04T12:45:26;11.81;67.88
69084;SHT31;56185;48.526;9.044;2024-02-04T12:47:52;11.78;67.73
69084;SHT31;56185;48.526;9.044;2024-02-04T12:50:18;11.77;67.27
69084;SHT31;56185;48.526;9.044;2024-02-04T12:52:46;11.74;67.69
69084;SHT31;56185;48.526;9.044;2024-02-04T12:55:25;11.85;67.99
69084;SHT31;56185;48.526;9.044;2024-02-04T12:58:01;11.93;68.21
69084;SHT31;56185;48.526;9.044;2024-02-04T13:00:26;12.06;66.83
69084;SHT31;56185;48.526;9.044;2024-02-04T13:02:55;11.88;67.37
69084;SHT31;56185;48.526;9.044;2024-02-04T13:05:23;11.98;67.26
69084;SHT31;56185;48.526;9.044;2024-02-04T13:07:57;11.86;67.79
69084;SHT31;56185;48.526;9.044;2024-02-04T13:10:25;11.67;68.15
69084;SHT31;56185;48.526;9.044;2024-02-04T13:15:27;11.62;68.52
69084;SHT31;56185;48.526;9.044;2024-02-04T13:17:53;11.67;68.31
69084;SHT31;56185;48.526;9.044;2024-02-04T13:20:18;11.68;68.45
69084;SHT31;56185;48.526;9.044;2024-02-04T13:22:43;11.71;68.28
69084;SHT31;56185;48.526;9.044;2024-02-04T13:25:08;11.59;68.46
69084;SHT31;56185;48.526;9.044;2024-02-04T13:27:34;11.58;67.80
69084;SHT31;56185;48.526;9.044;2024-02-04T13:29:59;11.88;67.55
69084;SHT31;56185;48.526;9.044;2024-02-04T13:32:24;11.90;67.23
69084;SHT31;56185;48.526;9.044;2024-02-04T13:34:50;11.89;67.87
69084;SHT31;56185;48.526;9.044;2024-02-04T13:37:15;11.99;67.40
69084;SHT31;56185;48.526;9.044;2024-02-04T13:39:40;12.05;66.69
69084;SHT31;56185;48.526;9.044;2024-02-04T13:42:06;11.98;66.90
69084;SHT31;56185;48.526;9.044;2024-02-04T13:44:31;11.88;67.38
69084;SHT31;56185;48.526;9.044;2024-02-04T13:46:56;11.82;67.45
69084;SHT31;56185;48.526;9.044;2024-02-04T13:49:21;11.83;67.75
69084;SHT31;56185;48.526;9.044;2024-02-04T13:51:47;11.83;67.79
69084;SHT31;56185;48.526;9.044;2024-02-04T13:54:12;11.85;67.45
69084;SHT31;56185;48.526;9.044;2024-02-04T13:56:37;11.93;67.66
69084;SHT31;56185;48.526;9.044;2024-02-04T13:59:04;11.92;67.46
69084;SHT31;56185;48.526;9.044;2024-02-04T14:01:30;11.89;67.11
69084;SHT31;56185;48.526;9.044;2024-02-04T14:03:55;11.78;67.96
69084;SHT31;56185;48.526;9.044;2024-02-04T14:06:20;11.65;68.10
69084;SHT31;56185;48.526;9.044;2024-02-04T14:08:48;11.75;68.41
69084;SHT31;56185;48.526;9.044;2024-02-04T14:11:13;11.67;68.32
69084;SHT31;56185;48.526;9.044;2024-02-04T14:13:38;11.68;67.90
69084;SHT31;56185;48.526;9.044;2024-02-04T14:16:05;11.58;68.33
69084;SHT31;56185;48.526;9.044;2024-02-04T14:18:33;11.62;68.38
69084;SHT31;56185;48.526;9.044;2024-02-04T14:20:58;11.59;68.35
69084;SHT31;56185;48.526;9.044;2024-02-04T14:23:23;11.57;67.88
69084;SHT31;56185;48.526;9.044;2024-02-04T14:25:49;11.42;68.43
69084;SHT31;56185;48.526;9.044;2024-02-04T14:28:14;11.30;69.18
69084;SHT31;56185;48.526;9.044;2024-02-04T14:30:45;11.31;69.29
69084;SHT31;56185;48.526;9.044;2024-02-04T14:33:11;11.31;69.73
69084;SHT31;56185;48.526;9.044;2024-02-04T14:35:36;11.26;69.76
69084;SHT31;56185;48.526;9.044;2024-02-04T14:38:01;11.35;69.37
69084;SHT31;56185;48.526;9.044;2024-02-04T14:40:27;11.37;69.71
69084;SHT31;56185;48.526;9.044;2024-02-04T14:42:52;11.24;69.31
69084;SHT31;56185;48.526;9.044;2024-02-04T14:45:17;11.35;69.81
69084;SHT31;56185;48.526;9.044;2024-02-04T14:47:42;11.26;69.15
69084;SHT31;56185;48.526;9.044;2024-02-04T14:50:08;11.10;69.83
69084;SHT31;56185;48.526;9.044;2024-02-04T14:52:33;11.19;69.90
69084;SHT31;56185;48.526;9.044;2024-02-04T14:54:59;11.07;69.95
69084;SHT31;56185;48.526;9.044;2024-02-04T14:57:29;11.03;70.14
69084;SHT31;56185;48.526;9.044;2024-02-04T14:59:54;11.03;70.01
69084;SHT31;56185;48.526;9.044;2024-02-04T15:02:20;11.03;70.36
69084;SHT31;56185;48.526;9.044;2024-02-04T15:04:45;11.07;70.50
69084;SHT31;56185;48.526;9.044;2024-02-04T15:07:10;11.07;70.38
69084;SHT31;56185;48.526;9.044;2024-02-04T15:09:35;11.11;70.27
69084;SHT31;56185;48.526;9.044;2024-02-04T15:12:01;11.09;70.15
69084;SHT31;56185;48.526;9.044;2024-02-04T15:14:27;11.06;70.19
69084;SHT31;56185;48.526;9.044;2024-02-04T15:16:53;10.96;70.58
69084;SHT31;56185;48.526;9.044;2024-02-04T15:19:19;11.03;70.24
69084;SHT31;56185;48.526;9.044;2024-02-04T15:21:46;11.06;70.40
69084;SHT31;56185;48.526;9.044;2024-02-04T15:24:11;11.03;70.38
69084;SHT31;56185;48.526;9.044;2024-02-04T15:26:37;11.07;70.52
69084;SHT31;56185;48.526;9.044;2024-02-04T15:29:03;11.11;70.43
69084;SHT31;56185;48.526;9.044;2024-02-04T15:31:29;11.11;70.44
69084;SHT31;56185;48.526;9.044;2024-02-04T15:33:55;11.14;70.58
69084;SHT31;56185;48.526;9.044;2024-02-04T15:36:20;11.07;70.95
69084;SHT31;56185;48.526;9.044;2024-02-04T15:38:48;10.99;70.98
69084;SHT31;56185;48.526;9.044;2024-02-04T15:41:13;10.83;71.45
69084;SHT31;56185;48.526;9.044;2024-02-04T15:43:38;10.79;71.36
69084;SHT31;56185;48.526;9.044;2024-02-04T15:46:07;10.69;71.57
69084;SHT31;56185;48.526;9.044;2024-02-04T15:48:37;10.72;72.06